Time;durP1;ratioP1;P1;durP2;ratioP2;P2;SDS_P1;SDS_P2;PMS_P1;PMS_P2;Temp;Humidity;BMP_temperature;BMP_pressure;BME280_temperature;BME280_humidity;BME280_pressure;Samples;Min_cycle;Max_cycle;Signal;HPM_P1;HPM_P2
2023/04/08 00:00:46;;;;;;;11.00;8.83;;;;;;;3.79;100.00;96370.91;5049855;28;20427;-73
2023/04/08 00:03:13;;;;;;;9.50;8.60;;;;;;;3.88;100.00;96394.59;5059401;28;20569;-73
2023/04/08 00:05:40;;;;;;;11.53;9.97;;;;;;;3.99;100.00;96395.22;5075963;28;20520;-73
2023/04/08 00:08:07;;;;;;;9.67;8.70;;;;;;;4.03;100.00;96393.63;5094116;28;20866;-73
2023/04/08 00:10:33;;;;;;;11.40;9.80;;;;;;;3.99;100.00;96385.53;5076089;28;20436;-73
2023/04/08 00:13:00;;;;;;;10.20;9.20;;;;;;;4.05;100.00;96400.13;5059017;28;20467;-73
2023/04/08 00:15:27;;;;;;;10.43;9.30;;;;;;;3.81;100.00;96365.41;5075197;28;20477;-73
2023/04/08 00:17:54;;;;;;;10.37;8.23;;;;;;;3.92;100.00;96379.91;5075760;28;20436;-74
2023/04/08 00:20:22;;;;;;;9.67;8.23;;;;;;;3.89;100.00;96398.00;5075817;28;20435;-74
2023/04/08 00:22:49;;;;;;;10.10;9.20;;;;;;;3.94;100.00;96403.16;5093860;28;20455;-74
2023/04/08 00:25:16;;;;;;;9.80;8.80;;;;;;;3.88;100.00;96367.69;5093900;28;20901;-74
2023/04/08 00:27:42;;;;;;;15.20;9.83;;;;;;;3.85;100.00;96361.91;5075700;28;20986;-74
2023/04/08 00:30:10;;;;;;;9.50;8.60;;;;;;;3.97;100.00;96398.13;5058971;28;20431;-73
2023/04/08 00:32:37;;;;;;;9.30;8.07;;;;;;;3.73;100.00;96358.94;5075310;28;20475;-73
2023/04/08 00:35:04;;;;;;;9.90;8.90;;;;;;;3.76;100.00;96368.84;5075735;28;20886;-73
2023/04/08 00:37:31;;;;;;;9.63;8.73;;;;;;;4.03;100.00;96394.41;5075347;28;20530;-74
2023/04/08 00:39:57;;;;;;;9.60;8.40;;;;;;;3.96;100.00;96391.34;5048533;28;20460;-73
2023/04/08 00:42:24;;;;;;;11.53;8.80;;;;;;;4.02;100.00;96392.84;5055236;28;20464;-73
2023/04/08 00:44:51;;;;;;;10.70;7.40;;;;;;;3.94;100.00;96383.00;5051952;28;20437;-73
2023/04/08 00:47:18;;;;;;;11.50;8.90;;;;;;;4.04;100.00;96397.78;5068092;28;20436;-73
2023/04/08 00:49:44;;;;;;;9.43;8.40;;;;;;;3.85;100.00;96366.38;5073228;28;20861;-74
2023/04/08 00:52:12;;;;;;;10.70;9.23;;;;;;;4.04;100.00;96406.41;5038362;28;20524;-74
2023/04/08 00:54:38;;;;;;;8.90;7.93;;;;;;;3.96;100.00;96388.72;5055017;28;20460;-74
2023/04/08 00:57:06;;;;;;;9.33;8.43;;;;;;;3.99;100.00;96388.16;5054827;28;20516;-74
2023/04/08 00:59:35;;;;;;;13.63;8.40;;;;;;;4.09;100.00;96395.88;5072991;28;20463;-74
2023/04/08 01:02:23;;;;;;;12.20;9.67;;;;;;;4.13;100.00;96401.31;5054867;28;20547;-74
2023/04/08 01:05:05;;;;;;;10.67;8.40;;;;;;;3.96;100.00;96401.03;5081672;28;20484;-74
2023/04/08 01:07:35;;;;;;;9.23;8.23;;;;;;;3.79;100.00;96359.66;5054999;28;20435;-74
2023/04/08 01:10:11;;;;;;;9.27;8.37;;;;;;;3.74;100.00;96372.78;5038231;28;20479;-74
2023/04/08 01:12:42;;;;;;;10.23;9.33;;;;;;;4.02;100.00;96405.94;5072591;28;20468;-74
2023/04/08 01:15:10;;;;;;;10.63;9.10;;;;;;;3.93;100.00;96397.13;5054703;28;20440;-73
2023/04/08 01:17:39;;;;;;;10.97;8.97;;;;;;;3.81;100.00;96381.06;5038120;28;20444;-73
2023/04/08 01:20:07;;;;;;;13.60;11.37;;;;;;;3.96;100.00;96406.25;5057291;28;20847;-73
2023/04/08 01:23:02;;;;;;;12.90;10.40;;;;;;;4.00;100.00;96405.41;5074389;28;21025;-74
2023/04/08 01:25:35;;;;;;;13.17;9.37;;;;;;;4.06;100.00;96400.91;5074420;28;20522;-73
2023/04/08 01:28:10;;;;;;;13.20;10.67;;;;;;;3.80;100.00;96374.28;5092549;28;20828;-73
2023/04/08 01:30:41;;;;;;;10.37;8.70;;;;;;;3.94;100.00;96406.53;5074353;28;20453;-73
2023/04/08 01:33:12;;;;;;;9.73;8.67;;;;;;;3.93;100.00;96405.00;5074444;28;20878;-74
2023/04/08 01:35:39;;;;;;;10.30;9.00;;;;;;;3.68;100.00;96363.47;5074431;28;20489;-73
2023/04/08 01:38:08;;;;;;;9.53;8.10;;;;;;;3.98;100.00;96401.53;5074547;28;20431;-73
2023/04/08 01:40:38;;;;;;;10.80;8.73;;;;;;;3.95;100.00;96405.47;5059495;28;20478;-73
2023/04/08 01:43:07;;;;;;;12.73;10.10;;;;;;;3.65;100.00;96356.97;5054403;28;20918;-73
2023/04/08 01:45:37;;;;;;;15.33;10.97;;;;;;;3.98;100.00;96402.28;5036994;28;20464;-73
2023/04/08 01:48:05;;;;;;;12.27;10.27;;;;;;;4.02;100.00;96403.31;5072057;28;20436;-73
2023/04/08 01:50:34;;;;;;;13.23;10.80;;;;;;;3.90;100.00;96389.88;5053947;28;20506;-73
2023/04/08 01:53:03;;;;;;;12.17;9.17;;;;;;;4.01;100.00;96385.28;5037323;28;20543;-73
2023/04/08 01:55:32;;;;;;;15.00;9.50;;;;;;;4.03;100.00;96397.00;5053948;28;20949;-73
2023/04/08 01:58:00;;;;;;;11.50;10.30;;;;;;;4.12;100.00;96402.38;5044891;28;20470;-73
2023/04/08 02:00:29;;;;;;;10.33;9.40;;;;;;;4.00;100.00;96387.09;5033944;28;20440;-73
2023/04/08 02:02:58;;;;;;;10.73;9.60;;;;;;;3.92;100.00;96379.13;5045740;28;20456;-73
2023/04/08 02:05:25;;;;;;;10.63;9.53;;;;;;;4.01;100.00;96380.06;5053827;28;20490;-73
2023/04/08 02:07:52;;;;;;;10.77;9.67;;;;;;;3.97;100.00;96408.59;5050781;28;20871;-73
2023/04/08 02:10:19;;;;;;;14.63;9.17;;;;;;;3.78;100.00;96377.19;5071202;28;20436;-73
2023/04/08 02:12:46;;;;;;;11.87;9.20;;;;;;;3.80;100.00;96396.00;5046749;28;20862;-73
2023/04/08 02:15:13;;;;;;;10.33;9.30;;;;;;;3.90;100.00;96404.78;5050530;28;21104;-73
2023/04/08 02:17:51;;;;;;;10.20;9.20;;;;;;;3.77;100.00;96387.94;5047535;28;20476;-73
2023/04/08 02:20:41;;;;;;;9.50;8.60;;;;;;;3.74;100.00;96365.75;5071669;28;20905;-73
2023/04/08 02:23:18;;;;;;;12.70;9.80;;;;;;;3.86;100.00;96401.94;5055462;28;20940;-73
2023/04/08 02:25:47;;;;;;;11.33;9.07;;;;;;;3.85;100.00;96403.00;5073890;28;20414;-74
2023/04/08 02:28:16;;;;;;;10.57;9.40;;;;;;;3.82;100.00;96406.16;5073682;28;20443;-74
2023/04/08 02:30:49;;;;;;;12.83;9.43;;;;;;;3.90;100.00;96405.56;5056921;28;20447;-74
2023/04/08 02:33:19;;;;;;;11.90;10.03;;;;;;;3.95;100.00;96409.94;5073672;28;20459;-74
2023/04/08 02:35:48;;;;;;;10.40;8.53;;;;;;;3.93;100.00;96417.28;5091678;28;20508;-73
2023/04/08 02:38:15;;;;;;;12.20;9.50;;;;;;;3.83;100.00;96410.34;5081269;28;20442;-74
2023/04/08 02:40:42;;;;;;;12.40;8.77;;;;;;;3.66;100.00;96412.66;5071438;28;20876;-72
2023/04/08 02:43:09;;;;;;;10.77;8.47;;;;;;;3.57;100.00;96394.19;5060743;28;20455;-72
2023/04/08 02:45:41;;;;;;;9.70;8.50;;;;;;;3.67;100.00;96401.13;5054358;28;20534;-73
2023/04/08 02:48:09;;;;;;;8.73;7.40;;;;;;;3.51;100.00;96409.16;5054388;28;20476;-73
2023/04/08 02:50:36;;;;;;;8.73;6.90;;;;;;;3.29;100.00;96374.13;5037163;28;20436;-73
2023/04/08 02:53:03;;;;;;;7.67;6.57;;;;;;;3.46;100.00;96401.34;5057455;28;20468;-73
2023/04/08 02:55:31;;;;;;;6.23;5.47;;;;;;;3.31;100.00;96377.22;5054058;28;20445;-73
2023/04/08 02:57:58;;;;;;;8.60;7.00;;;;;;;3.38;100.00;96409.03;5065521;28;20801;-73
2023/04/08 03:00:25;;;;;;;8.57;6.67;;;;;;;3.30;100.00;96394.72;5040681;28;20534;-73
2023/04/08 03:02:52;;;;;;;7.30;6.60;;;;;;;3.06;100.00;96391.31;5057082;28;20560;-73
2023/04/08 03:05:19;;;;;;;7.33;6.67;;;;;;;3.29;100.00;96408.06;5053815;28;20463;-73
2023/04/08 03:07:45;;;;;;;9.17;7.27;;;;;;;3.20;100.00;96408.66;5044499;28;20821;-73
2023/04/08 03:10:12;;;;;;;8.90;5.73;;;;;;;2.89;100.00;96382.06;5034862;28;20444;-73
2023/04/08 03:12:39;;;;;;;9.07;5.20;;;;;;;3.09;100.00;96415.06;5036083;28;20876;-73
2023/04/08 03:15:06;;;;;;;9.07;7.07;;;;;;;2.94;100.00;96395.09;5057774;28;20523;-73
2023/04/08 03:17:33;;;;;;;8.10;5.77;;;;;;;2.93;100.00;96408.41;5066167;28;20452;-73
2023/04/08 03:20:03;;;;;;;8.47;6.60;;;;;;;2.82;100.00;96414.78;5057186;28;20428;-73
2023/04/08 03:22:30;;;;;;;10.37;6.63;;;;;;;2.66;100.00;96417.50;5075044;28;20447;-73
2023/04/08 03:24:57;;;;;;;6.77;6.17;;;;;;;2.69;100.00;96407.59;5074717;28;20522;-73
2023/04/08 03:27:24;;;;;;;8.00;6.97;;;;;;;2.67;100.00;96415.66;5075021;28;20420;-73
2023/04/08 03:29:51;;;;;;;7.33;6.57;;;;;;;2.50;100.00;96403.00;5058925;28;20944;-72
2023/04/08 03:32:18;;;;;;;9.10;6.67;;;;;;;2.38;100.00;96407.78;5076794;28;20991;-72
2023/04/08 03:34:45;;;;;;;7.07;6.03;;;;;;;2.13;100.00;96376.66;5076822;28;20449;-72
2023/04/08 03:37:12;;;;;;;10.20;7.43;;;;;;;2.28;100.00;96415.72;5077129;28;20981;-72
2023/04/08 03:39:38;;;;;;;7.90;7.00;;;;;;;2.21;100.00;96397.72;5068933;28;21012;-72
2023/04/08 03:42:05;;;;;;;8.90;6.30;;;;;;;2.28;100.00;96398.22;5074368;28;20539;-72
2023/04/08 03:44:32;;;;;;;11.80;6.80;;;;;;;2.11;100.00;96389.19;5056451;28;20531;-72
2023/04/08 03:46:58;;;;;;;9.90;8.00;;;;;;;2.12;100.00;96412.38;5040570;28;21083;-72
2023/04/08 03:49:25;;;;;;;7.60;6.90;;;;;;;2.19;100.00;96414.72;5074091;28;20458;-72
2023/04/08 03:51:52;;;;;;;8.20;6.90;;;;;;;1.95;100.00;96401.53;5050400;28;20523;-72
2023/04/08 03:54:18;;;;;;;10.80;7.30;;;;;;;1.85;100.00;96410.19;5053349;28;20428;-72
2023/04/08 03:56:45;;;;;;;10.13;7.33;;;;;;;1.65;100.00;96374.56;5031140;28;20437;-72
2023/04/08 03:59:11;;;;;;;8.10;7.37;;;;;;;1.96;100.00;96416.13;5056053;28;20515;-74
2023/04/08 04:01:38;;;;;;;8.83;7.93;;;;;;;1.78;100.00;96392.25;5056161;28;20432;-74
2023/04/08 04:04:07;;;;;;;8.77;7.50;;;;;;;1.68;100.00;96378.47;5052858;28;20443;-74
2023/04/08 04:06:34;;;;;;;9.90;7.90;;;;;;;1.78;100.00;96394.06;5048046;28;20476;-74
2023/04/08 04:09:01;;;;;;;8.83;7.93;;;;;;;2.10;100.00;96418.91;5047459;28;20445;-73
2023/04/08 04:11:27;;;;;;;15.10;9.67;;;;;;;1.83;100.00;96412.28;5076033;28;20484;-73
2023/04/08 04:13:54;;;;;;;9.97;7.60;;;;;;;1.70;100.00;96399.81;5075960;28;20550;-72
2023/04/08 04:16:21;;;;;;;15.70;7.77;;;;;;;1.79;100.00;96400.84;5059606;28;20440;-72
2023/04/08 04:18:48;;;;;;;11.37;9.30;;;;;;;1.85;100.00;96422.44;5083592;28;20423;-72
2023/04/08 04:21:15;;;;;;;9.53;7.80;;;;;;;1.77;100.00;96427.16;5075941;28;20948;-72
2023/04/08 04:23:42;;;;;;;9.13;7.53;;;;;;;1.81;100.00;96421.41;5085461;28;20436;-72
2023/04/08 04:26:09;;;;;;;10.50;8.00;;;;;;;1.82;100.00;96423.75;5055613;28;20977;-72
2023/04/08 04:28:36;;;;;;;7.40;6.50;;;;;;;1.77;100.00;96427.16;5055895;28;20452;-73
2023/04/08 04:31:04;;;;;;;8.30;7.33;;;;;;;1.66;100.00;96396.19;5055702;28;20519;-73
2023/04/08 04:33:31;;;;;;;9.33;7.63;;;;;;;1.71;100.00;96430.81;5055515;28;20993;-72
2023/04/08 04:35:57;;;;;;;9.00;7.10;;;;;;;1.42;100.00;96403.84;5055835;28;20881;-72
2023/04/08 04:38:24;;;;;;;11.60;8.40;;;;;;;1.71;100.00;96424.84;5039062;28;20433;-72
2023/04/08 04:40:51;;;;;;;10.43;8.47;;;;;;;1.69;100.00;96424.31;5073730;28;20420;-72
2023/04/08 04:43:18;;;;;;;7.90;7.10;;;;;;;1.67;100.00;96411.56;5062076;28;20531;-72
2023/04/08 04:45:44;;;;;;;8.57;7.00;;;;;;;1.64;100.00;96419.13;5073107;28;20515;-72
2023/04/08 04:48:11;;;;;;;8.50;7.20;;;;;;;1.90;100.00;96420.59;5055498;28;20482;-72
2023/04/08 04:50:38;;;;;;;9.63;8.50;;;;;;;1.37;100.00;96362.97;5038539;28;20439;-72
2023/04/08 04:53:04;;;;;;;12.10;8.67;;;;;;;1.57;100.00;96419.41;5051743;28;20488;-72
2023/04/08 04:55:31;;;;;;;9.43;8.27;;;;;;;1.79;100.00;96434.72;5051758;28;20436;-72
2023/04/08 04:57:58;;;;;;;11.53;8.60;;;;;;;1.50;100.00;96408.50;5073074;28;20860;-72
2023/04/08 05:00:24;;;;;;;9.67;8.33;;;;;;;1.59;100.00;96426.97;5051509;28;20941;-72
2023/04/08 05:02:51;;;;;;;9.07;7.50;;;;;;;1.67;100.00;96437.63;5052447;28;20551;-72
2023/04/08 05:05:18;;;;;;;14.23;8.90;;;;;;;1.77;100.00;96445.41;5031423;28;20447;-72
2023/04/08 05:07:45;;;;;;;9.77;8.37;;;;;;;1.87;100.00;96443.78;5074762;28;20530;-72
2023/04/08 05:10:11;;;;;;;9.33;8.00;;;;;;;1.60;100.00;96450.13;5075026;28;20976;-72
2023/04/08 05:12:38;;;;;;;11.83;10.63;;;;;;;1.57;100.00;96424.63;5074660;28;20988;-72
2023/04/08 05:15:06;;;;;;;9.77;8.77;;;;;;;1.61;100.00;96404.03;5058263;28;20447;-72
2023/04/08 05:17:32;;;;;;;10.60;9.50;;;;;;;2.07;100.00;96443.72;5075049;28;20431;-72
2023/04/08 05:19:59;;;;;;;10.93;9.07;;;;;;;1.92;100.00;96422.94;5053746;28;20531;-72
2023/04/08 05:22:26;;;;;;;9.93;9.03;;;;;;;2.04;100.00;96445.03;5072419;28;20451;-72
2023/04/08 05:24:53;;;;;;;14.30;10.80;;;;;;;2.19;100.00;96438.97;5051260;28;20962;-73
2023/04/08 05:27:20;;;;;;;11.33;10.03;;;;;;;2.04;100.00;96444.25;5045825;28;20871;-73
2023/04/08 05:29:47;;;;;;;10.63;9.50;;;;;;;2.31;100.00;96470.72;5054908;28;20831;-73
2023/04/08 05:32:15;;;;;;;10.00;8.40;;;;;;;2.37;100.00;96446.16;5054642;28;20551;-73
2023/04/08 05:34:43;;;;;;;11.27;10.17;;;;;;;2.68;100.00;96469.44;5054711;28;20444;-72
2023/04/08 05:37:10;;;;;;;13.03;10.67;;;;;;;2.66;100.00;96474.13;5038154;28;20897;-72
2023/04/08 05:39:36;;;;;;;13.10;10.87;;;;;;;2.78;100.00;96474.59;5054743;28;20455;-72
2023/04/08 05:42:03;;;;;;;14.43;10.77;;;;;;;2.53;100.00;96444.22;5051630;28;20560;-73
2023/04/08 05:44:30;;;;;;;11.37;9.60;;;;;;;2.65;100.00;96464.75;5078043;28;20464;-73
2023/04/08 05:46:57;;;;;;;12.20;9.40;;;;;;;2.60;100.00;96465.56;5031494;28;20486;-73
2023/04/08 05:49:24;;;;;;;11.37;9.27;;;;;;;1.59;100.00;96362.59;5045917;28;20432;-73
2023/04/08 05:51:50;;;;;;;10.30;9.27;;;;;;;2.21;100.00;96457.72;5047977;28;20526;-72
2023/04/08 05:54:17;;;;;;;12.53;10.00;;;;;;;2.22;100.00;96474.16;5066114;28;20461;-72
2023/04/08 05:56:45;;;;;;;9.63;8.77;;;;;;;2.10;100.00;96476.28;5070168;28;20439;-72
2023/04/08 05:59:11;;;;;;;11.57;10.17;;;;;;;2.07;100.00;96447.09;5051674;28;20938;-72
2023/04/08 06:01:38;;;;;;;10.70;8.80;;;;;;;2.18;100.00;96460.09;5048814;28;20482;-72
2023/04/08 06:04:05;;;;;;;10.80;9.00;;;;;;;2.23;100.00;96481.69;5072098;28;20487;-72
2023/04/08 06:06:32;;;;;;;11.47;10.23;;;;;;;2.14;100.00;96487.72;5035427;28;20449;-72
2023/04/08 06:08:59;;;;;;;14.80;10.00;;;;;;;2.10;100.00;96479.69;5054107;28;20440;-72
2023/04/08 06:11:26;;;;;;;12.40;10.27;;;;;;;2.34;100.00;96492.88;5053704;28;20431;-72
2023/04/08 06:13:53;;;;;;;14.90;9.10;;;;;;;2.01;100.00;96471.66;5053528;28;20468;-72
2023/04/08 06:16:19;;;;;;;10.53;9.30;;;;;;;2.24;100.00;96496.28;5053892;28;20432;-72
2023/04/08 06:18:47;;;;;;;12.00;10.80;;;;;;;2.12;100.00;96498.44;5034291;28;20491;-72
2023/04/08 06:21:14;;;;;;;16.37;10.47;;;;;;;2.09;100.00;96498.97;5064502;28;20427;-72
2023/04/08 06:23:41;;;;;;;12.83;10.73;;;;;;;2.22;100.00;96505.44;5057141;28;21026;-73
2023/04/08 06:26:08;;;;;;;14.00;10.43;;;;;;;2.06;100.00;96476.06;5058364;28;20464;-73
2023/04/08 06:28:35;;;;;;;11.93;9.47;;;;;;;2.12;100.00;96495.84;5053655;28;20519;-73
2023/04/08 06:31:01;;;;;;;14.60;13.03;;;;;;;1.81;100.00;96478.75;5037221;28;20546;-73
2023/04/08 06:33:28;;;;;;;18.60;13.50;;;;;;;1.74;100.00;96445.19;5071868;28;20491;-73
2023/04/08 06:36:06;;;;;;;16.90;12.90;;;;;;;1.98;100.00;96493.03;5071785;28;20891;-73
2023/04/08 06:38:33;;;;;;;16.33;11.13;;;;;;;1.98;100.00;96510.50;5050646;28;20444;-73
2023/04/08 06:41:07;;;;;;;33.13;25.80;;;;;;;2.01;100.00;96508.16;5033796;28;20524;-73
2023/04/08 06:43:35;;;;;;;86.03;71.63;;;;;;;2.08;100.00;96492.97;5046103;28;20495;-72
2023/04/08 06:46:02;;;;;;;29.77;26.00;;;;;;;2.11;100.00;96473.41;5071418;28;20428;-72
2023/04/08 06:48:29;;;;;;;11.07;9.90;;;;;;;2.25;100.00;96491.88;5053618;28;20946;-72
2023/04/08 06:50:57;;;;;;;10.87;8.77;;;;;;;2.24;100.00;96493.69;5033563;28;20540;-72
2023/04/08 06:53:24;;;;;;;10.87;9.53;;;;;;;2.23;100.00;96493.97;5042913;28;20457;-72
2023/04/08 06:55:51;;;;;;;11.50;9.20;;;;;;;2.29;100.00;96498.91;5053418;28;20564;-73
2023/04/08 06:58:17;;;;;;;11.57;8.10;;;;;;;2.40;100.00;96515.25;5050097;28;20528;-73
2023/04/08 07:00:44;;;;;;;11.40;9.07;;;;;;;2.45;100.00;96519.69;5057972;28;20481;-72
2023/04/08 07:03:11;;;;;;;8.40;7.50;;;;;;;2.29;100.00;96496.28;5053244;28;20452;-72
2023/04/08 07:05:38;;;;;;;8.90;7.37;;;;;;;2.36;100.00;96509.03;5036731;28;20429;-72
2023/04/08 07:08:05;;;;;;;7.70;6.57;;;;;;;2.34;100.00;96506.69;5053222;28;20543;-72
2023/04/08 07:10:33;;;;;;;7.57;6.63;;;;;;;2.52;100.00;96533.22;5040279;28;21014;-73
2023/04/08 07:13:00;;;;;;;7.43;6.23;;;;;;;2.52;100.00;96517.56;5052939;28;20472;-73
2023/04/08 07:15:27;;;;;;;9.27;6.80;;;;;;;2.40;100.00;96483.19;5053122;28;20468;-73
2023/04/08 07:17:57;;;;;;;7.20;6.47;;;;;;;2.77;100.00;96530.47;5053072;28;20436;-73
2023/04/08 07:20:25;;;;;;;7.73;6.70;;;;;;;2.86;100.00;96535.91;5071469;28;20444;-73
2023/04/08 07:22:52;;;;;;;8.47;7.27;;;;;;;2.89;100.00;96530.13;5071438;28;20494;-73
2023/04/08 07:25:19;;;;;;;8.83;7.70;;;;;;;2.99;100.00;96539.72;5056861;28;20431;-73
2023/04/08 07:27:45;;;;;;;8.73;7.70;;;;;;;2.85;100.00;96519.44;5054907;28;20528;-73
2023/04/08 07:30:12;;;;;;;7.80;7.03;;;;;;;2.88;100.00;96531.94;5057303;28;20514;-73
2023/04/08 07:32:39;;;;;;;6.53;5.80;;;;;;;2.97;100.00;96551.22;5080848;28;20471;-74
2023/04/08 07:35:07;;;;;;;4.97;4.53;;;;;;;2.85;100.00;96555.22;5048447;28;20542;-74
2023/04/08 07:37:33;;;;;;;7.00;6.30;;;;;;;2.99;100.00;96552.78;5094871;28;20423;-73
2023/04/08 07:40:00;;;;;;;7.10;5.83;;;;;;;2.81;100.00;96546.38;5084089;28;20489;-73
2023/04/08 07:42:27;;;;;;;6.50;5.87;;;;;;;2.74;100.00;96530.22;5077790;28;20439;-73
2023/04/08 07:44:54;;;;;;;7.17;6.33;;;;;;;2.83;100.00;96557.31;5066870;28;20417;-73
2023/04/08 07:47:21;;;;;;;5.27;4.77;;;;;;;2.79;100.00;96538.00;5074446;28;20459;-73
2023/04/08 07:49:48;;;;;;;6.70;5.93;;;;;;;2.77;100.00;96530.47;5063227;28;20428;-73
2023/04/08 07:52:15;;;;;;;7.43;6.03;;;;;;;2.85;100.00;96537.72;5049568;28;20447;-73
2023/04/08 07:54:42;;;;;;;6.63;5.23;;;;;;;2.84;100.00;96554.44;5059725;28;20460;-73
2023/04/08 07:57:08;;;;;;;5.47;4.90;;;;;;;2.80;100.00;96531.75;5059676;28;20432;-73
2023/04/08 07:59:35;;;;;;;8.10;5.70;;;;;;;2.99;100.00;96563.22;5076234;28;20447;-73
2023/04/08 08:02:02;;;;;;;7.30;6.53;;;;;;;2.91;100.00;96541.84;5094291;28;20490;-73
2023/04/08 08:04:29;;;;;;;6.77;5.70;;;;;;;2.97;100.00;96540.78;5094446;28;20921;-73
2023/04/08 08:06:56;;;;;;;7.20;5.63;;;;;;;3.08;100.00;96546.72;5076209;28;20948;-73
2023/04/08 08:09:23;;;;;;;6.60;5.90;;;;;;;3.01;100.00;96554.06;5076430;28;20427;-73
2023/04/08 08:11:50;;;;;;;6.77;6.07;;;;;;;2.94;100.00;96528.28;5076346;28;20434;-73
2023/04/08 08:14:16;;;;;;;5.70;4.67;;;;;;;3.15;100.00;96562.84;5094103;28;20506;-73
2023/04/08 08:16:43;;;;;;;8.10;5.13;;;;;;;3.35;100.00;96566.38;5075916;28;20490;-73
2023/04/08 08:19:11;;;;;;;5.53;4.63;;;;;;;3.42;100.00;96572.06;5075830;28;20983;-73
2023/04/08 08:21:41;;;;;;;7.37;6.33;;;;;;;3.24;100.00;96574.28;5059246;28;20446;-73
2023/04/08 08:24:08;;;;;;;5.07;4.33;;;;;;;3.04;100.00;96545.69;5075960;28;20471;-73
2023/04/08 08:26:37;;;;;;;5.43;4.60;;;;;;;3.23;100.00;96545.81;5094001;28;20427;-73
2023/04/08 08:29:07;;;;;;;4.60;4.20;;;;;;;3.36;100.00;96552.25;5093909;28;20431;-73
2023/04/08 08:31:34;;;;;;;6.10;5.50;;;;;;;3.59;100.00;96559.34;5076055;28;20420;-73
2023/04/08 08:34:01;;;;;;;5.40;4.90;;;;;;;3.95;100.00;96549.34;5093645;28;20455;-73
2023/04/08 08:36:28;;;;;;;5.27;4.77;;;;;;;4.00;100.00;96580.66;5075277;28;20458;-73
2023/04/08 08:38:54;;;;;;;5.60;4.37;;;;;;;3.79;100.00;96567.03;5073841;28;20530;-73
2023/04/08 08:41:21;;;;;;;4.77;4.37;;;;;;;3.96;100.00;96576.28;5052653;28;20524;-73
2023/04/08 08:43:48;;;;;;;5.47;4.97;;;;;;;3.75;100.00;96565.25;5047206;28;20445;-74
2023/04/08 08:46:18;;;;;;;4.63;4.23;;;;;;;3.95;100.00;96583.34;5043900;28;20441;-73
2023/04/08 08:48:45;;;;;;;4.03;3.63;;;;;;;3.88;100.00;96584.75;5083341;28;20416;-73
2023/04/08 08:51:12;;;;;;;4.20;3.80;;;;;;;3.87;100.00;96576.09;5075534;28;20530;-73
2023/04/08 08:53:43;;;;;;;5.20;4.80;;;;;;;4.15;100.00;96601.47;5075247;28;20459;-73
2023/04/08 08:56:11;;;;;;;5.17;4.63;;;;;;;4.10;100.00;96598.09;5075486;28;20474;-73
2023/04/08 08:58:40;;;;;;;4.80;4.23;;;;;;;4.06;100.00;96576.94;5093556;28;20467;-73
2023/04/08 09:01:36;;;;;;;4.80;4.40;;;;;;;4.57;100.00;96605.19;5075259;28;20474;-73
2023/04/08 09:04:18;;;;;;;4.27;3.87;;;;;;;4.24;100.00;96580.69;5075488;28;20816;-73
2023/04/08 09:06:48;;;;;;;4.83;4.33;;;;;;;4.35;100.00;96605.69;5105952;28;20451;-73
2023/04/08 09:09:16;;;;;;;4.87;4.37;;;;;;;4.32;100.00;96582.69;5088888;28;20438;-73
2023/04/08 09:11:46;;;;;;;3.77;3.57;;;;;;;4.42;100.00;96611.38;5074890;28;20465;-74
2023/04/08 09:14:24;;;;;;;4.90;4.07;;;;;;;4.22;100.00;96587.25;5074725;28;20542;-74
2023/04/08 09:16:52;;;;;;;3.87;3.57;;;;;;;4.32;100.00;96593.16;5058307;28;20431;-74
2023/04/08 09:19:19;;;;;;;3.80;3.40;;;;;;;4.69;100.00;96616.03;5074965;28;20453;-74
2023/04/08 09:22:03;;;;;;;5.27;4.87;;;;;;;4.73;100.00;96626.72;5074963;28;20788;-74
2023/04/08 09:24:30;;;;;;;3.00;2.80;;;;;;;4.71;100.00;96607.88;5058148;28;20492;-74
2023/04/08 09:26:57;;;;;;;4.67;4.27;;;;;;;4.71;100.00;96602.66;5057981;28;20484;-74
2023/04/08 09:29:25;;;;;;;4.87;4.57;;;;;;;4.89;100.00;96624.69;5074583;28;20530;-74
2023/04/08 09:31:57;;;;;;;4.77;4.37;;;;;;;4.91;100.00;96635.66;5074614;28;20443;-74
2023/04/08 09:34:26;;;;;;;5.07;4.57;;;;;;;4.72;100.00;96625.94;5074475;28;20463;-74
2023/04/08 09:36:53;;;;;;;6.57;4.40;;;;;;;4.85;100.00;96644.66;5074610;28;20494;-74
2023/04/08 09:39:21;;;;;;;6.27;4.30;;;;;;;4.80;100.00;96621.13;5069199;28;20468;-74
2023/04/08 09:41:50;;;;;;;4.60;4.20;;;;;;;4.82;100.00;96630.28;5054164;28;20467;-74
2023/04/08 09:44:19;;;;;;;4.90;4.50;;;;;;;4.83;100.00;96618.75;5054610;28;20523;-74
2023/04/08 09:46:49;;;;;;;6.17;5.50;;;;;;;5.10;100.00;96633.84;5076305;28;20430;-75
2023/04/08 09:49:32;;;;;;;5.27;4.73;;;;;;;5.10;100.00;96643.53;5037723;28;20437;-75
2023/04/08 09:52:10;;;;;;;5.50;5.00;;;;;;;4.73;100.00;96593.44;5035043;28;20445;-74
2023/04/08 09:55:00;;;;;;;4.50;4.10;;;;;;;4.91;100.00;96654.00;5037565;28;20491;-74
2023/04/08 09:57:42;;;;;;;5.27;4.57;;;;;;;4.73;100.00;96609.16;5073346;28;20485;-74
2023/04/08 10:00:13;;;;;;;4.60;4.27;;;;;;;5.08;100.00;96650.91;5092529;28;20419;-74
2023/04/08 10:03:12;;;;;;;4.80;4.37;;;;;;;5.20;100.00;96646.00;5092503;28;20447;-74
2023/04/08 10:05:42;;;;;;;4.30;3.90;;;;;;;5.32;100.00;96643.75;5088510;28;20432;-74
2023/04/08 10:08:09;;;;;;;4.50;4.20;;;;;;;5.27;100.00;96631.50;5073730;28;20443;-74
2023/04/08 10:10:38;;;;;;;5.07;4.57;;;;;;;5.53;100.00;96644.25;5057273;28;20504;-74
2023/04/08 10:13:09;;;;;;;3.50;3.20;;;;;;;5.52;100.00;96643.47;5073681;28;20503;-74
2023/04/08 10:15:38;;;;;;;3.30;3.10;;;;;;;5.27;100.00;96622.84;5091906;28;20447;-74
2023/04/08 10:18:05;;;;;;;3.60;3.30;;;;;;;5.47;100.00;96651.38;5074162;28;20470;-74
2023/04/08 10:20:34;;;;;;;3.77;3.30;;;;;;;5.49;100.00;96659.00;5092018;28;20463;-74
2023/04/08 10:23:12;;;;;;;4.80;4.40;;;;;;;5.22;100.00;96641.28;5073772;28;20463;-74
2023/04/08 10:25:43;;;;;;;4.87;3.50;;;;;;;5.32;100.00;96656.84;5073754;28;20427;-75
2023/04/08 10:28:10;;;;;;;3.20;3.00;;;;;;;5.31;100.00;96656.06;5074013;28;20496;-74
2023/04/08 10:30:38;;;;;;;3.73;3.10;;;;;;;5.41;100.00;96652.53;5042120;28;20452;-73
2023/04/08 10:33:28;;;;;;;4.97;3.67;;;;;;;5.12;100.00;96605.50;5070145;28;20539;-73
2023/04/08 10:36:12;;;;;;;7.90;3.90;;;;;;;5.33;100.00;96653.94;5049175;28;20476;-73
2023/04/08 10:38:41;;;;;;;4.03;3.53;;;;;;;5.31;100.00;96631.69;5037112;28;20436;-73
2023/04/08 10:41:20;;;;;;;3.30;3.00;;;;;;;5.48;100.00;96647.72;5071766;28;20573;-73
2023/04/08 10:43:47;;;;;;;3.37;3.10;;;;;;;5.45;100.00;96642.25;5071623;28;20440;-73
2023/04/08 10:46:14;;;;;;;3.20;3.00;;;;;;;5.50;100.00;96656.06;5082352;28;20427;-74
2023/04/08 10:48:40;;;;;;;3.17;2.83;;;;;;;5.26;100.00;96623.91;5051438;28;20535;-74
2023/04/08 10:51:07;;;;;;;3.17;2.60;;;;;;;5.48;100.00;96658.22;5034082;28;20951;-74
2023/04/08 10:53:36;;;;;;;3.57;3.27;;;;;;;5.46;100.00;96647.19;5045722;28;20962;-74
2023/04/08 10:56:09;;;;;;;3.00;2.80;;;;;;;5.47;100.00;96640.13;5036983;28;20464;-74
2023/04/08 10:58:47;;;;;;;4.10;3.57;;;;;;;5.70;100.00;96665.47;5055057;28;20463;-74
2023/04/08 11:01:14;;;;;;;3.70;2.60;;;;;;;5.53;100.00;96641.63;5057304;28;20432;-74
2023/04/08 11:03:42;;;;;;;3.77;3.43;;;;;;;5.68;100.00;96657.13;5057325;28;20506;-74
2023/04/08 11:06:08;;;;;;;4.03;3.43;;;;;;;5.86;100.00;96668.63;5075282;28;20828;-74
2023/04/08 11:08:36;;;;;;;3.47;3.17;;;;;;;5.81;100.00;96659.00;5079041;28;20529;-73
2023/04/08 11:11:09;;;;;;;4.80;3.40;;;;;;;5.89;100.00;96639.22;5077288;28;20439;-73
2023/04/08 11:13:45;;;;;;;3.40;3.10;;;;;;;5.76;100.00;96632.09;5077142;28;20451;-73
2023/04/08 11:16:22;;;;;;;3.73;3.00;;;;;;;5.76;100.00;96624.22;5077172;28;20473;-73
2023/04/08 11:18:50;;;;;;;4.00;3.60;;;;;;;6.02;100.00;96677.88;5060906;28;20522;-73
2023/04/08 11:21:17;;;;;;;5.53;4.53;;;;;;;5.80;100.00;96644.34;5077087;28;20478;-74
2023/04/08 11:23:44;;;;;;;3.50;2.87;;;;;;;5.85;100.00;96673.09;5060384;28;20455;-74
2023/04/08 11:26:11;;;;;;;4.90;4.27;;;;;;;5.82;100.00;96675.53;5076901;28;20427;-74
2023/04/08 11:28:38;;;;;;;4.67;4.30;;;;;;;5.73;100.00;96683.25;5077079;28;20856;-74
2023/04/08 11:31:05;;;;;;;6.00;4.70;;;;;;;5.85;100.00;96678.34;5061783;28;20440;-74
2023/04/08 11:33:32;;;;;;;4.37;3.80;;;;;;;5.56;100.00;96648.91;5056981;28;20454;-74
2023/04/08 11:36:00;;;;;;;3.37;3.00;;;;;;;5.48;100.00;96657.44;5069408;28;20546;-74